| time (UTC) | temp F | wind direction | speed MPH | gust MPH | rain 1hr in | rain 24hr in | rain mn in | humidity % | barometer mb |
| 20260509094501 | 53 | 36 | 0.0 | 0.0 | 0.00 | 0.00 | 0.00 | 62 | 1010.0 |
| 20260509093059 | 54 | 151 | 0.0 | 4.0 | 0.00 | 0.00 | 0.00 | 60 | 1009.7 |
| 20260509091555 | 54 | 49 | 0.0 | 1.0 | 0.00 | 0.00 | 0.00 | 59 | 1009.2 |
| 20260509090051 | 55 | 313 | 0.0 | 0.0 | 0.00 | 0.00 | 0.00 | 58 | 1009.1 |
| 20260509084552 | 55 | 309 | 0.0 | 0.0 | 0.00 | 0.00 | 0.00 | 56 | 1008.6 |
| 20260509083045 | 55 | 0.0 | 0.0 | 0.00 | 0.00 | 0.00 | 56 | 1008.5 | |
| 20260509081542 | 55 | 166 | 1.0 | 8.0 | 0.00 | 0.00 | 0.00 | 56 | 1008.4 |
| 20260509080044 | 55 | 82 | 0.0 | 15.0 | 0.00 | 0.00 | 0.00 | 54 | 1008.1 |
| 20260509074538 | 56 | 103 | 0.0 | 0.0 | 0.00 | 0.00 | 0.00 | 50 | 1007.9 |
| 20260509073035 | 56 | 322 | 0.0 | 0.0 | 0.00 | 0.00 | 0.00 | 51 | 1007.7 |
| 20260509071529 | 57 | 61 | 0.0 | 0.0 | 0.00 | 0.00 | 0.00 | 51 | 1007.5 |
| 20260509070028 | 56 | 93 | 0.0 | 0.0 | 0.00 | 0.00 | 0.00 | 50 | 1007.3 |
| 20260509064526 | 57 | 236 | 0.0 | 0.0 | 0.00 | 0.00 | 0.00 | 47 | 1007.0 |
| 20260509063032 | 58 | 251 | 0.0 | 0.0 | 0.00 | 0.00 | 0.00 | 43 | 1006.8 |
| 20260509061520 | 60 | 123 | 0.0 | 16.0 | 0.00 | 0.00 | 0.00 | 39 | 1006.5 |
| 20260509060014 | 59 | 37 | 8.0 | 14.0 | 0.00 | 0.00 | 0.00 | 38 | 1006.3 |
| 20260509054511 | 59 | 229 | 0.0 | 2.0 | 0.00 | 0.00 | 0.00 | 38 | 1006.1 |
| 20260509053013 | 60 | 6 | 0.0 | 4.0 | 0.00 | 0.00 | 0.00 | 37 | 1005.9 |
| 20260509051507 | 60 | 55 | 0.0 | 2.0 | 0.00 | 0.00 | 0.00 | 37 | 1005.8 |
| 20260509050006 | 60 | 351 | 0.0 | 0.0 | 0.00 | 0.00 | 0.00 | 38 | 1005.6 |
| 20260509044501 | 60 | 176 | 0.0 | 2.0 | 0.00 | 0.00 | 0.00 | 37 | 1005.5 |
| 20260509043058 | 59 | 340 | 0.0 | 0.0 | 0.00 | 0.00 | 0.00 | 41 | 1005.5 |
| 20260509041552 | 57 | 191 | 0.0 | 0.0 | 0.00 | 0.00 | 0.00 | 47 | 1005.3 |
| 20260509040049 | 56 | 0.0 | 0.0 | 0.00 | 0.00 | 0.00 | 50 | 1005.2 | |
| 20260509034547 | 57 | 1 | 0.0 | 0.0 | 0.00 | 0.00 | 0.00 | 53 | 1005.0 |
| 20260509033044 | 58 | 113 | 0.0 | 0.0 | 0.00 | 0.00 | 0.00 | 51 | 1004.9 |
| 20260509031553 | 58 | 319 | 0.0 | 0.0 | 0.00 | 0.00 | 0.00 | 51 | 1004.8 |
| 20260509030040 | 59 | 358 | 0.0 | 0.0 | 0.00 | 0.00 | 0.00 | 50 | 1004.7 |
| 20260509024539 | 61 | 214 | 0.0 | 0.0 | 0.00 | 0.00 | 0.00 | 49 | 1004.6 |
| 20260509023038 | 62 | 101 | 0.0 | 0.0 | 0.00 | 0.00 | 0.00 | 47 | 1004.4 |
| 20260509021508 | 64 | 148 | 0.0 | 0.0 | 0.00 | 0.00 | 0.00 | 44 | 1004.3 |
| 20260509020010 | 66 | 117 | 0.0 | 0.0 | 0.00 | 0.00 | 0.00 | 38 | 1004.3 |
| 20260509014514 | 68 | 236 | 0.0 | 0.0 | 0.00 | 0.00 | 0.00 | 35 | 1004.3 |
| 20260509013005 | 70 | 151 | 0.0 | 0.0 | 0.00 | 0.00 | 0.00 | 34 | 1004.3 |
| 20260509011504 | 71 | 232 | 0.0 | 1.0 | 0.00 | 0.00 | 0.00 | 31 | 1004.3 |
| 20260509010002 | 72 | 190 | 0.0 | 0.0 | 0.00 | 0.00 | 0.00 | 29 | 1004.3 |
| 20260509004533 | 73 | 60 | 0.0 | 1.0 | 0.00 | 0.00 | 0.00 | 29 | 1004.4 |
| 20260509003031 | 74 | 165 | 0.0 | 14.0 | 0.00 | 0.00 | 0.00 | 26 | 1004.5 |
| 20260509001531 | 74 | 205 | 0.0 | 9.0 | 0.00 | 0.00 | 0.00 | 29 | 1004.5 |
| 20260509000026 | 75 | 201 | 0.0 | 3.0 | 0.00 | 0.00 | 0.00 | 28 | 1004.6 |
| 20260508234524 | 75 | 51 | 0.0 | 7.0 | 0.00 | 0.00 | 0.00 | 26 | 1004.6 |
| 20260508233022 | 75 | 263 | 2.0 | 21.0 | 0.00 | 0.00 | 0.00 | 26 | 1004.8 |
| 20260508231516 | 75 | 4 | 1.0 | 10.0 | 0.00 | 0.00 | 0.00 | 28 | 1005.0 |
| 20260508230014 | 75 | 258 | 0.0 | 15.0 | 0.00 | 0.00 | 0.00 | 28 | 1005.0 |
| 20260508224510 | 74 | 124 | 2.0 | 13.0 | 0.00 | 0.00 | 0.00 | 29 | 1005.3 |
| 20260508223010 | 74 | 325 | 5.0 | 16.0 | 0.00 | 0.00 | 0.00 | 30 | 1005.5 |
| 20260508221503 | 73 | 274 | 0.0 | 10.0 | 0.00 | 0.00 | 0.00 | 31 | 1005.8 |
| 20260508220124 | 73 | 0.0 | 15.0 | 0.00 | 0.00 | 0.00 | 31 | 1006.0 | |
| 20260508214558 | 72 | 311 | 0.0 | 9.0 | 0.00 | 0.00 | 0.00 | 32 | 1006.3 |
| 20260508213059 | 73 | 167 | 0.0 | 12.0 | 0.00 | 0.00 | 0.00 | 30 | 1006.5 |
| 20260508211552 | 72 | 323 | 0.0 | 8.0 | 0.00 | 0.00 | 0.00 | 33 | 1006.7 |
| 20260508210020 | 72 | 71 | 1.0 | 11.0 | 0.00 | 0.00 | 0.00 | 32 | 1007.0 |
| 20260508204521 | 72 | 132 | 0.0 | 5.0 | 0.00 | 0.00 | 0.00 | 32 | 1007.3 |
| 20260508203011 | 71 | 167 | 0.0 | 11.0 | 0.00 | 0.00 | 0.00 | 31 | 1007.6 |
| 20260508201510 | 70 | 281 | 0.0 | 10.0 | 0.00 | 0.00 | 0.00 | 36 | 1007.9 |
| 20260508201507 | 70 | 122 | 0.0 | 10.0 | 0.00 | 0.00 | 0.00 | 36 | 1007.9 |
| 20260508200005 | 71 | 231 | 0.0 | 5.0 | 0.00 | 0.00 | 0.00 | 34 | 1008.0 |
| 20260508194501 | 71 | 8 | 0.0 | 3.0 | 0.00 | 0.00 | 0.00 | 34 | 1008.3 |
| 20260508193105 | 70 | 19 | 0.0 | 6.0 | 0.00 | 0.00 | 0.00 | 34 | 1008.5 |
| 20260508191553 | 70 | 82 | 0.0 | 7.0 | 0.00 | 0.00 | 0.00 | 35 | 1008.9 |
| 20260508190104 | 69 | 63 | 0.0 | 12.0 | 0.00 | 0.00 | 0.00 | 34 | 1009.1 |
| 20260508184551 | 69 | 109 | 0.0 | 12.0 | 0.00 | 0.00 | 0.00 | 35 | 1009.3 |
| 20260508183045 | 68 | 219 | 0.0 | 10.0 | 0.00 | 0.00 | 0.00 | 36 | 1009.7 |
| 20260508181557 | 68 | 219 | 0.0 | 0.0 | 0.00 | 0.00 | 0.00 | 38 | 1009.9 |
| 20260508180041 | 67 | 44 | 4.0 | 11.0 | 0.00 | 0.00 | 0.00 | 37 | 1010.2 |
| 20260508174540 | 67 | 39 | 0.0 | 0.0 | 0.00 | 0.00 | 0.00 | 36 | 1010.4 |
| 20260508173030 | 66 | 0.0 | 0.0 | 0.00 | 0.00 | 0.00 | 37 | 1010.7 | |
| 20260508171529 | 67 | 159 | 0.0 | 2.0 | 0.00 | 0.00 | 0.00 | 36 | 1010.9 |
| 20260508170028 | 67 | 286 | 0.0 | 7.0 | 0.00 | 0.00 | 0.00 | 36 | 1011.1 |
| 20260508164525 | 65 | 360 | 0.0 | 2.0 | 0.00 | 0.00 | 0.00 | 37 | 1011.2 |
| 20260508163032 | 64 | 251 | 0.0 | 0.0 | 0.00 | 0.00 | 0.00 | 40 | 1011.3 |
| 20260508161527 | 63 | 122 | 0.0 | 0.0 | 0.00 | 0.00 | 0.00 | 43 | 1011.5 |
| 20260508160017 | 62 | 107 | 0.0 | 0.0 | 0.00 | 0.00 | 0.00 | 45 | 1011.6 |
| 20260508154516 | 63 | 303 | 0.0 | 0.0 | 0.00 | 0.00 | 0.00 | 46 | 1011.8 |
| 20260508153010 | 61 | 223 | 0.0 | 0.0 | 0.00 | 0.00 | 0.00 | 51 | 1011.9 |
| 20260508151507 | 60 | 148 | 0.0 | 0.0 | 0.00 | 0.00 | 0.00 | 55 | 1011.9 |
| 20260508150003 | 57 | 360 | 0.0 | 0.0 | 0.00 | 0.00 | 0.00 | 60 | 1012.0 |
| 20260508144606 | 55 | 46 | 0.0 | 0.0 | 0.00 | 0.00 | 0.00 | 63 | 1012.2 |
| 20260508143057 | 54 | 61 | 0.0 | 0.0 | 0.00 | 0.00 | 0.00 | 68 | 1012.3 |
| 20260508141558 | 52 | 278 | 0.0 | 0.0 | 0.00 | 0.00 | 0.00 | 71 | 1012.5 |
| 20260508140050 | 50 | 240 | 0.0 | 0.0 | 0.00 | 0.00 | 0.00 | 73 | 1012.7 |
| 20260508134558 | 49 | 118 | 0.0 | 0.0 | 0.00 | 0.00 | 0.00 | 77 | 1012.8 |
| 20260508133047 | 47 | 37 | 0.0 | 0.0 | 0.00 | 0.00 | 0.00 | 80 | 1012.7 |
| 20260508131547 | 45 | 19 | 0.0 | 0.0 | 0.00 | 0.00 | 0.00 | 82 | 1012.7 |
| 20260508130045 | 43 | 220 | 0.0 | 0.0 | 0.00 | 0.00 | 0.00 | 82 | 1012.6 |
| 20260508124543 | 43 | 154 | 0.0 | 0.0 | 0.00 | 0.00 | 0.00 | 82 | 1012.4 |
| 20260508123042 | 44 | 105 | 0.0 | 0.0 | 0.00 | 0.00 | 0.00 | 82 | 1012.4 |
| 20260508121541 | 44 | 290 | 0.0 | 0.0 | 0.00 | 0.00 | 0.00 | 81 | 1012.3 |
| 20260508120035 | 44 | 50 | 0.0 | 0.0 | 0.00 | 0.00 | 0.00 | 82 | 1012.3 |
| 20260508114537 | 44 | 293 | 0.0 | 0.0 | 0.00 | 0.00 | 0.00 | 83 | 1012.2 |
| 20260508113035 | 44 | 355 | 0.0 | 0.0 | 0.00 | 0.00 | 0.00 | 82 | 1012.1 |
| 20260508111528 | 44 | 110 | 0.0 | 0.0 | 0.00 | 0.00 | 0.00 | 83 | 1011.9 |
| 20260508110025 | 44 | 136 | 0.0 | 0.0 | 0.00 | 0.00 | 0.00 | 82 | 1011.8 |
| 20260508104523 | 46 | 13 | 0.0 | 0.0 | 0.00 | 0.00 | 0.00 | 80 | 1011.6 |
| 20260508103020 | 45 | 108 | 0.0 | 0.0 | 0.00 | 0.00 | 0.00 | 82 | 1011.4 |
| 20260508101519 | 45 | 153 | 0.0 | 0.0 | 0.00 | 0.00 | 0.00 | 82 | 1011.2 |
| 20260508100018 | 46 | 201 | 0.0 | 0.0 | 0.00 | 0.00 | 0.00 | 80 | 1011.2 |